Time;durP1;ratioP1;P1;durP2;ratioP2;P2;SDS_P1;SDS_P2;PMS_P1;PMS_P2;Temp;Humidity;BMP_temperature;BMP_pressure;BME280_temperature;BME280_humidity;BME280_pressure;Samples;Min_cycle;Max_cycle;Signal;HPM_P1;HPM_P2
2023/05/19 00:01:06;;;;;;;12.35;4.90;;;;;;;8.30;100.00;102676.56;4992327;28;20045;-47
2023/05/19 00:03:32;;;;;;;8.43;5.10;;;;;;;8.34;100.00;102687.13;4974985;28;20510;-46
2023/05/19 00:06:00;;;;;;;8.90;5.43;;;;;;;8.47;100.00;102709.94;4975340;28;20093;-42
2023/05/19 00:08:29;;;;;;;10.63;5.68;;;;;;;8.18;100.00;102664.22;4976226;28;20421;-42
2023/05/19 00:10:54;;;;;;;12.50;5.68;;;;;;;8.42;100.00;102702.91;4996195;28;20038;-42
2023/05/19 00:13:20;;;;;;;12.40;5.70;;;;;;;8.31;100.00;102694.97;4996241;28;20038;-42
2023/05/19 00:15:45;;;;;;;12.73;6.13;;;;;;;8.37;100.00;102702.88;4978679;28;20093;-44
2023/05/19 00:18:12;;;;;;;11.73;5.55;;;;;;;8.16;100.00;102668.59;4995806;28;20038;-42
2023/05/19 00:20:38;;;;;;;8.52;5.07;;;;;;;8.28;100.00;102700.19;4978456;28;20085;-45
2023/05/19 00:23:03;;;;;;;10.40;5.32;;;;;;;8.27;100.00;102703.69;4995743;28;20105;-42
2023/05/19 00:25:28;;;;;;;10.02;5.85;;;;;;;7.89;100.00;102639.56;4995795;28;20481;-41
2023/05/19 00:27:54;;;;;;;11.30;6.20;;;;;;;7.87;100.00;102636.06;4995933;28;20386;-42
2023/05/19 00:30:21;;;;;;;9.88;5.07;;;;;;;8.26;100.00;102701.03;4995465;28;20035;-41
2023/05/19 00:32:47;;;;;;;10.82;5.75;;;;;;;7.87;100.00;102636.94;4995773;28;20504;-44
2023/05/19 00:35:12;;;;;;;11.93;5.50;;;;;;;8.15;100.00;102684.31;4978082;28;20046;-41
2023/05/19 00:37:38;;;;;;;8.13;5.00;;;;;;;8.23;100.00;102703.63;4977984;28;20042;-46
2023/05/19 00:40:05;;;;;;;15.65;5.93;;;;;;;8.12;100.00;102695.66;4978339;28;20049;-46
2023/05/19 00:42:31;;;;;;;9.48;5.82;;;;;;;7.76;100.00;102632.47;4995553;28;20038;-43
2023/05/19 00:44:57;;;;;;;9.05;6.00;;;;;;;8.07;100.00;102700.00;4978356;28;20038;-42
2023/05/19 00:47:22;;;;;;;8.75;5.70;;;;;;;7.64;100.00;102622.78;4977916;28;20045;-46
2023/05/19 00:49:47;;;;;;;12.80;6.10;;;;;;;7.60;100.00;102627.97;4995368;28;20050;-42
2023/05/19 00:52:12;;;;;;;9.55;5.40;;;;;;;7.65;100.00;102641.97;4994993;28;20397;-41
2023/05/19 00:54:38;;;;;;;11.65;5.90;;;;;;;7.95;100.00;102702.53;4978043;28;20041;-42
2023/05/19 00:57:03;;;;;;;8.68;5.45;;;;;;;7.93;100.00;102699.03;4995135;28;20030;-42
2023/05/19 00:59:29;;;;;;;10.63;6.28;;;;;;;7.56;100.00;102639.31;4977636;28;20081;-41
2023/05/19 01:01:54;;;;;;;11.15;5.88;;;;;;;7.88;100.00;102696.34;4994970;28;20034;-42
2023/05/19 01:04:20;;;;;;;13.05;5.72;;;;;;;7.60;100.00;102660.28;4977105;28;20038;-44
2023/05/19 01:06:53;;;;;;;11.55;5.65;;;;;;;7.57;100.00;102659.38;4994990;28;20038;-42
2023/05/19 01:09:20;;;;;;;12.30;6.07;;;;;;;7.75;100.00;102697.13;4995094;28;20121;-43
2023/05/19 01:11:45;;;;;;;9.55;6.07;;;;;;;7.48;100.00;102651.44;4994979;28;20037;-42
2023/05/19 01:14:11;;;;;;;11.52;5.97;;;;;;;7.69;100.00;102697.06;4993638;28;20034;-45
2023/05/19 01:16:40;;;;;;;8.95;6.15;;;;;;;7.61;100.00;102690.00;4977566;28;20057;-42
2023/05/19 01:19:35;;;;;;;11.68;6.70;;;;;;;7.61;100.00;102693.50;4976784;28;20030;-42
2023/05/19 01:22:23;;;;;;;12.52;6.28;;;;;;;7.49;100.00;102672.44;4974183;28;20413;-45
2023/05/19 01:25:03;;;;;;;11.70;6.05;;;;;;;7.49;100.00;102680.28;4975332;28;20039;-41
2023/05/19 01:28:09;;;;;;;14.13;6.93;;;;;;;7.46;100.00;102684.63;4975084;28;20477;-42
2023/05/19 01:30:42;;;;;;;13.15;6.75;;;;;;;6.94;100.00;102625.59;4974044;28;20081;-42
2023/05/19 01:33:12;;;;;;;10.80;5.97;;;;;;;7.25;100.00;102666.94;4975291;28;20130;-45
2023/05/19 01:35:39;;;;;;;11.80;6.20;;;;;;;7.09;100.00;102644.09;4975054;28;20128;-46
2023/05/19 01:38:07;;;;;;;8.98;6.18;;;;;;;7.26;100.00;102677.44;4973441;28;20497;-43
2023/05/19 01:40:34;;;;;;;10.90;6.35;;;;;;;7.19;100.00;102673.00;4975121;28;20173;-42
2023/05/19 01:43:00;;;;;;;10.57;6.60;;;;;;;7.20;100.00;102673.88;4973827;28;20050;-43
2023/05/19 01:45:31;;;;;;;11.30;6.88;;;;;;;7.12;100.00;102665.06;4973690;28;20489;-42
2023/05/19 01:47:59;;;;;;;13.23;6.78;;;;;;;7.19;100.00;102683.47;4973285;28;20049;-43
2023/05/19 01:50:24;;;;;;;8.52;6.28;;;;;;;7.09;100.00;102660.66;4973387;28;20090;-49
2023/05/19 01:52:50;;;;;;;10.80;6.80;;;;;;;7.13;100.00;102658.94;4957538;28;20446;-42
2023/05/19 01:55:16;;;;;;;13.15;6.80;;;;;;;7.13;100.00;102669.44;4989731;28;20118;-43
2023/05/19 01:58:09;;;;;;;10.63;6.47;;;;;;;6.83;100.00;102608.91;4974751;28;20470;-42
2023/05/19 02:00:56;;;;;;;14.68;7.15;;;;;;;7.14;100.00;102668.56;4975123;28;20035;-42
2023/05/19 02:03:37;;;;;;;11.80;6.80;;;;;;;6.73;100.00;102597.44;4974403;28;20481;-42
2023/05/19 02:06:20;;;;;;;12.18;6.75;;;;;;;7.05;100.00;102655.38;4973449;28;20038;-44
2023/05/19 02:09:02;;;;;;;13.18;7.88;;;;;;;7.02;100.00;102668.44;4974358;28;20054;-43
2023/05/19 02:11:36;;;;;;;11.55;7.15;;;;;;;7.03;100.00;102662.34;4974158;28;20031;-41
2023/05/19 02:14:05;;;;;;;11.88;7.25;;;;;;;6.97;100.00;102651.81;4973355;28;20421;-42
2023/05/19 02:16:31;;;;;;;12.85;7.05;;;;;;;7.00;100.00;102657.06;4973163;28;20536;-42
2023/05/19 02:18:58;;;;;;;14.38;7.82;;;;;;;6.67;100.00;102600.88;4974248;28;20090;-44
2023/05/19 02:21:23;;;;;;;12.05;6.93;;;;;;;6.99;100.00;102668.41;4982142;28;20408;-45
2023/05/19 02:23:49;;;;;;;12.80;7.35;;;;;;;6.70;100.00;102611.38;4993476;28;20039;-44
2023/05/19 02:26:14;;;;;;;9.80;6.80;;;;;;;6.91;100.00;102662.22;4992638;28;20034;-45
2023/05/19 02:28:40;;;;;;;15.15;7.85;;;;;;;6.87;100.00;102658.66;4993695;28;20049;-42
2023/05/19 02:31:07;;;;;;;14.57;7.30;;;;;;;6.45;100.00;102591.00;4992740;28;20054;-44
2023/05/19 02:33:33;;;;;;;15.00;7.47;;;;;;;6.71;100.00;102647.13;4993650;28;20068;-42
2023/05/19 02:35:58;;;;;;;14.93;7.63;;;;;;;6.44;100.00;102588.38;4993479;28;20474;-46
2023/05/19 02:38:24;;;;;;;17.70;7.53;;;;;;;6.80;100.00;102655.09;4993119;28;20393;-42
2023/05/19 02:40:53;;;;;;;14.20;8.30;;;;;;;6.48;100.00;102591.03;4992280;28;20045;-41
2023/05/19 02:43:18;;;;;;;10.68;7.13;;;;;;;6.78;100.00;102648.09;4993660;28;20041;-41
2023/05/19 02:45:44;;;;;;;18.08;8.18;;;;;;;6.41;100.00;102591.84;4993302;28;20119;-41
2023/05/19 02:48:10;;;;;;;14.00;7.75;;;;;;;6.74;100.00;102646.31;4993011;28;20039;-41
2023/05/19 02:50:35;;;;;;;12.98;7.65;;;;;;;6.71;100.00;102664.59;4993039;28;20477;-42
2023/05/19 02:53:01;;;;;;;12.20;8.02;;;;;;;6.55;100.00;102628.63;4993131;28;20106;-42
2023/05/19 02:55:26;;;;;;;13.32;8.13;;;;;;;6.64;100.00;102634.84;4975881;28;20042;-43
2023/05/19 02:57:52;;;;;;;15.32;8.25;;;;;;;6.35;100.00;102580.41;4992820;28;20392;-44
2023/05/19 03:00:17;;;;;;;8.63;7.72;;;;;;;6.66;100.00;102629.63;4993055;28;20077;-43
2023/05/19 03:02:42;;;;;;;12.57;7.32;;;;;;;6.56;100.00;102628.66;4992857;28;20046;-42
2023/05/19 03:05:09;;;;;;;9.13;7.22;;;;;;;6.26;100.00;102570.72;4992924;28;20034;-42
2023/05/19 03:07:34;;;;;;;10.77;7.60;;;;;;;6.59;100.00;102635.66;4992862;28;20060;-43
2023/05/19 03:10:02;;;;;;;13.48;8.57;;;;;;;6.27;100.00;102587.28;4991664;28;20120;-42
2023/05/19 03:12:28;;;;;;;14.10;7.68;;;;;;;6.53;100.00;102630.34;4993208;28;20046;-42
2023/05/19 03:14:53;;;;;;;14.65;8.80;;;;;;;6.17;100.00;102570.59;4992688;28;20165;-42
2023/05/19 03:17:19;;;;;;;15.60;8.05;;;;;;;6.52;100.00;102639.91;4993076;28;20470;-42
2023/05/19 03:19:44;;;;;;;16.13;8.65;;;;;;;6.24;100.00;102585.50;4992917;28;20041;-42
2023/05/19 03:22:10;;;;;;;16.42;7.93;;;;;;;6.43;100.00;102620.59;4991560;28;20053;-42
2023/05/19 03:24:35;;;;;;;10.75;7.53;;;;;;;6.10;100.00;102564.38;4992944;28;20034;-42
2023/05/19 03:27:01;;;;;;;13.50;7.93;;;;;;;6.08;100.00;102571.34;4992845;28;20062;-42
2023/05/19 03:29:26;;;;;;;15.63;8.95;;;;;;;6.43;100.00;102631.06;4991717;28;20125;-42
2023/05/19 03:31:52;;;;;;;15.52;8.23;;;;;;;6.38;100.00;102623.19;4992593;28;20048;-42
2023/05/19 03:34:17;;;;;;;13.52;8.50;;;;;;;6.42;100.00;102624.09;4992621;28;20501;-43
2023/05/19 03:36:43;;;;;;;15.18;9.30;;;;;;;6.09;100.00;102569.63;4992600;28;20042;-42
2023/05/19 03:39:09;;;;;;;13.00;8.40;;;;;;;6.42;100.00;102618.88;4992853;28;20038;-42
2023/05/19 03:41:35;;;;;;;21.73;9.90;;;;;;;6.21;100.00;102580.25;4992378;28;20042;-43
2023/05/19 03:44:00;;;;;;;12.88;9.18;;;;;;;6.43;100.00;102624.09;4996615;28;20034;-43
2023/05/19 03:46:26;;;;;;;16.70;8.55;;;;;;;6.46;100.00;102629.38;4996628;28;20038;-41
2023/05/19 03:48:51;;;;;;;16.67;9.48;;;;;;;6.17;100.00;102565.34;4996383;28;20505;-40
2023/05/19 03:51:16;;;;;;;16.95;8.93;;;;;;;6.48;100.00;102622.41;4995969;28;20390;-42
2023/05/19 03:53:42;;;;;;;17.50;9.02;;;;;;;6.52;100.00;102624.22;4979206;28;20407;-42
2023/05/19 03:56:10;;;;;;;14.65;9.02;;;;;;;6.60;100.00;102624.31;4995105;28;20038;-41
2023/05/19 03:58:38;;;;;;;18.55;10.00;;;;;;;6.27;100.00;102568.97;4979245;28;20235;-42
2023/05/19 04:01:03;;;;;;;16.73;9.38;;;;;;;6.49;100.00;102605.00;4996255;28;20374;-41
2023/05/19 04:03:28;;;;;;;18.73;10.27;;;;;;;6.57;100.00;102613.81;4995799;28;20049;-43
2023/05/19 04:05:54;;;;;;;18.60;9.30;;;;;;;6.65;100.00;102625.25;4995973;28;20104;-43
2023/05/19 04:08:19;;;;;;;17.92;10.35;;;;;;;6.66;100.00;102625.25;4978829;28;20061;-41
2023/05/19 04:10:44;;;;;;;16.58;9.95;;;;;;;6.67;100.00;102621.81;4995958;28;20043;-41
2023/05/19 04:13:10;;;;;;;16.33;9.93;;;;;;;6.66;100.00;102620.03;4996280;28;20038;-42
2023/05/19 04:15:35;;;;;;;14.73;9.35;;;;;;;6.26;100.00;102549.78;4995945;28;20068;-41
2023/05/19 04:18:01;;;;;;;17.92;9.73;;;;;;;6.31;100.00;102558.56;4978374;28;20038;-42
2023/05/19 04:20:27;;;;;;;16.02;9.50;;;;;;;6.06;100.00;102509.44;4995597;28;20501;-43
2023/05/19 04:22:52;;;;;;;15.32;9.07;;;;;;;6.82;100.00;102631.56;4995732;28;20046;-43
2023/05/19 04:25:18;;;;;;;16.42;10.07;;;;;;;6.55;100.00;102587.63;4995925;28;20085;-41
2023/05/19 04:27:44;;;;;;;14.48;8.77;;;;;;;6.90;100.00;102632.53;4995567;28;20026;-41
2023/05/19 04:30:10;;;;;;;15.15;9.95;;;;;;;6.93;100.00;102637.78;4995815;28;20114;-42
2023/05/19 04:32:36;;;;;;;18.60;10.00;;;;;;;6.96;100.00;102642.19;4995397;28;20052;-41
2023/05/19 04:35:02;;;;;;;16.58;9.68;;;;;;;6.87;100.00;102615.91;4995682;28;20038;-42
2023/05/19 04:37:28;;;;;;;13.55;9.35;;;;;;;6.65;100.00;102573.81;4995707;28;20046;-42
2023/05/19 04:39:54;;;;;;;16.77;9.73;;;;;;;6.70;100.00;102573.84;4995710;28;20125;-41
2023/05/19 04:42:19;;;;;;;20.10;9.98;;;;;;;7.11;100.00;102630.16;4995589;28;20113;-42
2023/05/19 04:44:45;;;;;;;19.75;10.48;;;;;;;6.82;100.00;102573.09;4995424;28;20034;-43
2023/05/19 04:47:10;;;;;;;18.60;10.27;;;;;;;7.20;100.00;102631.97;4994971;28;20026;-43
2023/05/19 04:49:37;;;;;;;22.48;10.45;;;;;;;7.27;100.00;102632.03;4995402;28;20030;-45
2023/05/19 04:52:05;;;;;;;23.73;10.00;;;;;;;7.06;100.00;102589.94;4995132;28;20034;-43
2023/05/19 04:54:31;;;;;;;15.50;8.95;;;;;;;7.41;100.00;102634.81;4994941;28;20041;-41
2023/05/19 04:56:56;;;;;;;16.02;9.10;;;;;;;7.48;100.00;102630.47;4995062;28;20408;-42
2023/05/19 04:59:22;;;;;;;18.55;10.15;;;;;;;7.56;100.00;102634.06;4994703;28;20109;-42
2023/05/19 05:01:47;;;;;;;16.83;9.68;;;;;;;7.55;100.00;102616.56;4994766;28;20470;-42
2023/05/19 05:04:12;;;;;;;16.85;9.10;;;;;;;7.50;100.00;102598.19;4977113;28;20039;-42
2023/05/19 05:06:39;;;;;;;12.93;9.02;;;;;;;7.47;100.00;102585.09;4977754;28;20046;-43
2023/05/19 05:09:04;;;;;;;20.70;10.07;;;;;;;7.84;100.00;102636.03;4995076;28;20065;-42
2023/05/19 05:11:30;;;;;;;17.05;8.95;;;;;;;7.91;100.00;102640.44;4995083;28;20457;-42
2023/05/19 05:13:56;;;;;;;13.05;8.95;;;;;;;7.88;100.00;102632.56;4994675;28;20474;-42
2023/05/19 05:16:23;;;;;;;16.50;9.18;;;;;;;7.99;100.00;102644.00;4994347;28;20045;-41
2023/05/19 05:18:48;;;;;;;15.23;9.20;;;;;;;8.10;100.00;102644.06;4994744;28;20125;-42
2023/05/19 05:21:14;;;;;;;14.80;9.52;;;;;;;8.15;100.00;102656.34;4994494;28;20169;-41
2023/05/19 05:23:39;;;;;;;15.32;9.20;;;;;;;8.20;100.00;102649.38;4994530;28;20039;-41
2023/05/19 05:26:09;;;;;;;14.43;9.43;;;;;;;8.19;100.00;102634.50;4994735;28;20084;-43
2023/05/19 05:28:34;;;;;;;23.27;9.73;;;;;;;8.30;100.00;102643.34;4994441;28;20062;-44
2023/05/19 05:31:00;;;;;;;14.35;9.63;;;;;;;8.05;100.00;102588.09;4994472;28;20081;-42
2023/05/19 05:33:25;;;;;;;17.17;8.95;;;;;;;8.48;100.00;102659.19;4994392;28;20074;-42
2023/05/19 05:35:51;;;;;;;17.60;9.32;;;;;;;8.30;100.00;102596.13;4994638;28;20030;-43
2023/05/19 05:38:16;;;;;;;19.58;9.15;;;;;;;8.73;100.00;102654.91;4994423;28;20034;-43
2023/05/19 05:40:42;;;;;;;22.40;10.25;;;;;;;8.80;100.00;102640.97;4994248;28;20038;-42
2023/05/19 05:43:07;;;;;;;12.38;8.50;;;;;;;8.67;100.00;102589.25;4994332;28;20154;-42
2023/05/19 05:45:32;;;;;;;14.60;9.55;;;;;;;8.77;100.00;102598.94;4994642;28;20125;-42
2023/05/19 05:47:58;;;;;;;15.38;9.73;;;;;;;8.96;100.00;102599.88;4994196;28;20121;-42
2023/05/19 05:50:23;;;;;;;16.15;9.20;;;;;;;9.35;100.00;102657.72;4992758;28;20038;-43
2023/05/19 05:52:49;;;;;;;17.80;9.25;;;;;;;9.09;100.00;102583.25;4994217;28;20042;-42
2023/05/19 05:55:16;;;;;;;14.98;8.95;;;;;;;9.37;100.00;102639.34;4960822;28;20065;-43
2023/05/19 05:57:41;;;;;;;13.85;9.30;;;;;;;9.57;100.00;102656.88;4994072;28;20030;-42
2023/05/19 06:00:14;;;;;;;11.93;8.63;;;;;;;9.24;100.00;102585.91;4993885;28;20038;-42
2023/05/19 06:02:46;;;;;;;13.57;8.32;;;;;;;9.73;100.00;102651.63;4977577;28;20061;-41
2023/05/19 06:05:11;;;;;;;11.85;8.32;;;;;;;9.80;100.00;102648.13;4976900;28;20038;-41
2023/05/19 06:07:37;;;;;;;13.10;8.73;;;;;;;9.58;100.00;102584.13;4992738;28;20030;-41
2023/05/19 06:10:03;;;;;;;16.58;8.98;;;;;;;10.00;100.00;102655.13;4993959;28;20034;-45
2023/05/19 06:12:29;;;;;;;12.52;7.80;;;;;;;10.15;100.00;102651.63;4993478;28;20161;-44
2023/05/19 06:14:54;;;;;;;12.20;7.45;;;;;;;10.42;100.00;102646.25;4992283;28;20504;-43
2023/05/19 06:17:19;;;;;;;15.35;8.30;;;;;;;10.42;100.00;102638.38;4993623;28;20089;-43
2023/05/19 06:19:45;;;;;;;15.07;8.52;;;;;;;10.56;100.00;102662.91;4993723;28;20405;-43
2023/05/19 06:22:10;;;;;;;10.90;9.00;;;;;;;10.60;100.00;102662.00;4993525;28;20129;-44
2023/05/19 06:24:35;;;;;;;12.90;8.27;;;;;;;10.77;100.00;102650.53;4993551;28;20105;-43
2023/05/19 06:27:01;;;;;;;13.38;8.63;;;;;;;10.83;100.00;102642.63;4993583;28;20382;-43
2023/05/19 06:29:26;;;;;;;13.75;8.32;;;;;;;10.66;100.00;102611.06;4993502;28;20038;-42
2023/05/19 06:31:51;;;;;;;11.32;8.27;;;;;;;11.02;100.00;102662.69;4993417;28;20049;-42
2023/05/19 06:34:17;;;;;;;10.02;7.78;;;;;;;11.17;100.00;102667.91;4975921;28;20031;-44
2023/05/19 06:36:42;;;;;;;12.20;7.85;;;;;;;10.89;100.00;102603.91;4993518;28;20046;-42
2023/05/19 06:39:07;;;;;;;15.43;7.57;;;;;;;11.28;100.00;102669.59;4993254;28;20496;-44
2023/05/19 06:41:33;;;;;;;10.85;7.93;;;;;;;10.99;100.00;102607.38;4993277;28;20030;-43
2023/05/19 06:43:58;;;;;;;15.88;7.82;;;;;;;11.14;100.00;102608.16;4993269;28;20170;-46
2023/05/19 06:46:24;;;;;;;10.98;8.13;;;;;;;11.56;100.00;102677.28;4993100;28;20065;-43
2023/05/19 06:48:49;;;;;;;14.88;8.13;;;;;;;11.53;100.00;102672.06;4993337;28;20030;-43
2023/05/19 06:51:20;;;;;;;11.13;8.02;;;;;;;11.60;100.00;102679.91;4993331;28;20529;-44
2023/05/19 06:53:46;;;;;;;12.07;7.15;;;;;;;11.73;100.00;102678.94;4993219;28;20042;-43
2023/05/19 06:56:11;;;;;;;11.23;7.68;;;;;;;11.81;100.00;102673.63;4993221;28;20396;-43
2023/05/19 06:58:38;;;;;;;16.13;7.93;;;;;;;11.86;100.00;102674.44;4993022;28;20030;-42
2023/05/19 07:01:03;;;;;;;10.57;7.35;;;;;;;11.80;100.00;102672.75;4992981;28;20042;-45
2023/05/19 07:03:29;;;;;;;13.88;6.80;;;;;;;11.84;100.00;102661.28;4992016;28;20496;-47
2023/05/19 07:05:55;;;;;;;10.20;6.85;;;;;;;11.91;100.00;102651.53;4976121;28;20042;-42
2023/05/19 07:08:20;;;;;;;9.02;6.88;;;;;;;12.01;100.00;102676.94;4993143;28;20073;-48
2023/05/19 07:10:45;;;;;;;11.73;7.50;;;;;;;11.69;100.00;102627.13;4975866;28;20100;-45
2023/05/19 07:13:11;;;;;;;11.45;7.28;;;;;;;11.80;100.00;102627.88;4992793;28;20038;-42
2023/05/19 07:15:36;;;;;;;10.98;7.00;;;;;;;11.84;100.00;102634.91;4992725;28;20038;-43
2023/05/19 07:18:02;;;;;;;12.23;7.30;;;;;;;12.15;100.00;102682.97;4997632;28;20481;-42
2023/05/19 07:20:27;;;;;;;10.88;7.22;;;;;;;12.17;100.00;102677.69;4981916;28;20034;-41
2023/05/19 07:22:52;;;;;;;12.45;7.10;;;;;;;12.01;100.00;102644.41;4999426;28;20543;-41
2023/05/19 07:25:18;;;;;;;11.45;7.10;;;;;;;12.43;100.00;102680.06;4999315;28;20500;-44
2023/05/19 07:27:44;;;;;;;8.90;6.90;;;;;;;12.04;100.00;102538.81;4999221;28;20049;-44
2023/05/19 07:30:10;;;;;;;12.98;6.20;;;;;;;13.40;100.00;102674.41;4998838;28;20038;-46
2023/05/19 07:32:35;;;;;;;10.50;6.10;;;;;;;13.73;100.00;102680.94;4998875;28;20401;-41
2023/05/19 07:35:01;;;;;;;11.07;6.50;;;;;;;14.13;100.00;102686.47;4981952;28;20069;-44
2023/05/19 07:37:26;;;;;;;12.70;6.75;;;;;;;14.78;100.00;102690.50;4999238;28;20030;-46
2023/05/19 07:39:51;;;;;;;8.50;5.32;;;;;;;15.66;100.00;102646.97;4998178;28;20109;-43
2023/05/19 07:42:17;;;;;;;8.93;5.43;;;;;;;16.29;100.00;102692.22;4981051;28;20034;-42
2023/05/19 07:44:42;;;;;;;13.82;5.38;;;;;;;16.38;100.00;102701.72;4999172;28;20031;-43
2023/05/19 07:47:07;;;;;;;10.27;5.45;;;;;;;16.65;100.00;102703.69;4998683;28;20057;-44
2023/05/19 07:49:33;;;;;;;10.23;5.93;;;;;;;16.55;100.00;102667.66;4998982;28;20049;-46
2023/05/19 07:51:58;;;;;;;9.25;5.40;;;;;;;16.92;100.00;102718.84;4998702;28;20069;-44
2023/05/19 07:54:23;;;;;;;9.32;4.68;;;;;;;16.97;100.00;102706.28;4999054;28;20030;-46
2023/05/19 07:56:49;;;;;;;8.55;4.88;;;;;;;17.16;100.00;102694.16;4999022;28;20060;-48
2023/05/19 07:59:15;;;;;;;6.68;4.40;;;;;;;17.63;100.00;102716.69;4998977;28;20039;-44
2023/05/19 08:01:40;;;;;;;9.15;4.70;;;;;;;17.76;100.00;102714.50;4998498;28;20030;-45
2023/05/19 08:04:06;;;;;;;4.90;4.25;;;;;;;17.71;100.00;102720.00;4981761;28;20041;-44
2023/05/19 08:06:31;;;;;;;10.73;4.95;;;;;;;17.41;100.00;102689.84;4998757;28;20034;-44
2023/05/19 08:08:57;;;;;;;5.18;3.90;;;;;;;17.50;100.00;102714.44;5013965;28;20041;-47
2023/05/19 08:11:22;;;;;;;9.60;5.40;;;;;;;16.82;100.00;102642.91;4981297;28;20072;-44
2023/05/19 08:13:48;;;;;;;10.55;4.88;;;;;;;16.94;100.00;102645.19;4981170;28;20108;-46
2023/05/19 08:16:14;;;;;;;9.45;5.10;;;;;;;17.22;100.00;102693.97;4999199;28;20053;-44
2023/05/19 08:18:39;;;;;;;7.22;4.60;;;;;;;17.18;100.00;102686.16;4999016;28;20066;-45
2023/05/19 08:21:05;;;;;;;10.50;5.00;;;;;;;17.09;100.00;102633.22;4998734;28;20472;-46
2023/05/19 08:23:30;;;;;;;9.07;4.90;;;;;;;17.64;100.00;102696.25;4981363;28;20172;-45
2023/05/19 08:25:56;;;;;;;5.70;4.18;;;;;;;17.76;100.00;102696.72;4998871;28;20082;-43
2023/05/19 08:28:21;;;;;;;6.97;4.10;;;;;;;18.18;100.00;102689.09;4997141;28;20433;-47
2023/05/19 08:30:46;;;;;;;7.57;4.07;;;;;;;18.05;100.00;102687.75;4995491;28;20034;-44
2023/05/19 08:33:12;;;;;;;6.20;4.15;;;;;;;18.46;100.00;102694.31;5010844;28;20493;-46
2023/05/19 08:35:37;;;;;;;7.25;4.10;;;;;;;18.52;100.00;102641.66;4995847;28;20500;-46
2023/05/19 08:38:02;;;;;;;12.43;3.63;;;;;;;19.09;100.00;102694.59;5010613;28;20038;-45
2023/05/19 08:40:30;;;;;;;5.15;3.50;;;;;;;19.22;100.00;102689.66;4995448;28;20042;-45
2023/05/19 08:42:56;;;;;;;7.38;3.97;;;;;;;19.46;100.00;102662.03;4978366;28;20073;-45
2023/05/19 08:45:21;;;;;;;8.75;3.55;;;;;;;19.60;100.00;102621.38;4995837;28;20062;-44
2023/05/19 08:47:47;;;;;;;7.40;4.43;;;;;;;19.93;100.00;102678.75;4995401;28;20038;-48
2023/05/19 08:50:16;;;;;;;7.68;3.35;;;;;;;20.19;100.00;102633.06;4995154;28;20062;-46
2023/05/19 08:52:56;;;;;;;6.35;3.38;;;;;;;20.50;100.00;102627.22;4977840;28;20035;-44
2023/05/19 08:55:33;;;;;;;7.13;3.03;;;;;;;20.70;100.00;102667.31;4978172;28;20065;-45
2023/05/19 08:58:00;;;;;;;5.88;3.10;;;;;;;19.29;100.00;102522.09;4977774;28;20117;-44
2023/05/19 09:00:26;;;;;;;6.55;2.53;;;;;;;18.94;100.00;102679.16;4977492;28;20022;-45
2023/05/19 09:02:52;;;;;;;7.50;2.70;;;;;;;18.83;100.00;102677.84;4994172;28;20045;-44
2023/05/19 09:05:18;;;;;;;5.18;2.55;;;;;;;18.51;100.00;102615.91;4977728;28;20038;-45
2023/05/19 09:07:44;;;;;;;6.07;2.33;;;;;;;19.22;100.00;102670.97;4977656;28;20038;-43
2023/05/19 09:10:13;;;;;;;10.05;2.80;;;;;;;19.33;100.00;102665.19;4991156;28;20069;-46
2023/05/19 09:12:40;;;;;;;7.15;2.70;;;;;;;19.71;100.00;102621.78;4994619;28;20478;-45
2023/05/19 09:15:07;;;;;;;7.72;2.67;;;;;;;19.92;100.00;102652.09;4980935;28;20390;-41
2023/05/19 09:17:32;;;;;;;5.88;2.00;;;;;;;20.34;100.00;102610.16;5008953;28;20042;-44
2023/05/19 09:20:06;;;;;;;6.03;2.33;;;;;;;19.92;100.00;102652.97;4994515;28;20069;-42
2023/05/19 09:22:34;;;;;;;8.45;3.08;;;;;;;20.10;100.00;102621.91;4997014;28;20449;-44
2023/05/19 09:25:00;;;;;;;6.00;2.28;;;;;;;20.37;100.00;102596.63;4988329;28;20045;-47
2023/05/19 09:27:25;;;;;;;7.28;2.65;;;;;;;21.05;100.00;102665.66;5020426;28;20042;-44
2023/05/19 09:29:50;;;;;;;5.53;2.60;;;;;;;21.50;99.12;102662.63;4991248;28;20027;-42
2023/05/19 09:32:26;;;;;;;7.47;2.22;;;;;;;22.21;96.05;102660.81;5002866;28;20045;-42
2023/05/19 09:34:54;;;;;;;6.93;2.75;;;;;;;22.51;90.97;102669.03;5000696;28;20390;-46
2023/05/19 09:37:23;;;;;;;8.18;2.42;;;;;;;22.63;99.18;102658.53;5010465;28;20177;-43
2023/05/19 09:39:51;;;;;;;5.93;2.33;;;;;;;22.77;91.04;102663.16;4999288;28;20030;-42
2023/05/19 09:42:23;;;;;;;7.75;3.28;;;;;;;22.95;89.53;102597.72;4975664;28;20023;-43
2023/05/19 09:44:50;;;;;;;4.32;1.95;;;;;;;23.07;87.59;102657.94;4999296;28;20030;-46
2023/05/19 09:47:15;;;;;;;7.07;2.88;;;;;;;22.44;93.04;102663.16;4995822;28;20555;-43
2023/05/19 09:49:45;;;;;;;3.30;1.65;;;;;;;21.71;83.25;102615.13;5009108;28;20022;-43
2023/05/19 09:52:15;;;;;;;4.68;2.08;;;;;;;21.71;84.11;102663.38;4984598;28;20037;-43
2023/05/19 09:54:40;;;;;;;6.25;2.15;;;;;;;20.74;86.41;102625.22;5001133;28;20037;-43
2023/05/19 09:57:06;;;;;;;6.13;2.35;;;;;;;21.43;88.34;102654.94;4986997;28;20034;-44
2023/05/19 09:59:31;;;;;;;6.50;2.00;;;;;;;22.17;88.32;102651.19;4978042;28;20034;-42
2023/05/19 10:02:44;;;;;;;5.97;1.77;;;;;;;22.82;83.01;102642.31;5010290;28;20450;-41
2023/05/19 10:05:15;;;;;;;4.75;1.90;;;;;;;23.89;75.94;102640.59;4968037;28;20050;-42
2023/05/19 10:07:47;;;;;;;8.20;2.05;;;;;;;23.90;72.93;102653.09;4994499;28;20077;-44
2023/05/19 10:10:13;;;;;;;5.57;2.25;;;;;;;24.09;71.41;102643.81;4976066;28;20062;-42
2023/05/19 10:12:39;;;;;;;12.73;2.42;;;;;;;24.48;70.63;102642.38;5004096;28;20034;-47
2023/05/19 10:15:12;;;;;;;7.93;2.80;;;;;;;24.18;74.09;102596.69;5000935;28;20505;-44
2023/05/19 10:17:38;;;;;;;4.78;2.20;;;;;;;24.85;68.00;102600.53;4968647;28;20046;-43
2023/05/19 10:20:07;;;;;;;5.30;2.30;;;;;;;24.55;63.77;102608.69;4991928;28;20034;-44
2023/05/19 10:22:33;;;;;;;8.55;2.35;;;;;;;24.27;61.45;102643.69;4992646;28;20073;-42
2023/05/19 10:24:58;;;;;;;7.97;2.30;;;;;;;23.74;75.14;102601.16;4981237;28;20474;-45
2023/05/19 10:27:26;;;;;;;11.18;2.78;;;;;;;23.67;74.05;102646.38;4993112;28;20035;-43
2023/05/19 10:29:53;;;;;;;9.85;2.60;;;;;;;23.47;81.96;102588.41;4993300;28;20035;-42
2023/05/19 10:32:22;;;;;;;4.15;2.22;;;;;;;22.45;77.64;102592.41;4982752;28;20049;-43
2023/05/19 10:34:58;;;;;;;7.50;2.42;;;;;;;22.89;90.99;102632.97;4993519;28;20038;-45
2023/05/19 10:37:27;;;;;;;5.93;2.40;;;;;;;22.80;82.81;102642.41;4985973;28;20043;-44
2023/05/19 10:39:54;;;;;;;4.85;2.70;;;;;;;23.13;82.76;102625.34;4992030;28;20389;-43
2023/05/19 10:42:36;;;;;;;6.13;2.33;;;;;;;23.17;81.86;102627.78;4992680;28;20504;-43
2023/05/19 10:45:18;;;;;;;7.80;2.88;;;;;;;24.02;92.82;102634.38;4992898;28;20105;-44
2023/05/19 10:47:44;;;;;;;7.60;2.95;;;;;;;23.16;83.56;102549.97;4992608;28;20027;-45
2023/05/19 10:50:10;;;;;;;8.43;2.88;;;;;;;23.56;80.84;102619.25;4982782;28;20030;-44
2023/05/19 10:52:37;;;;;;;10.75;3.00;;;;;;;22.69;85.97;102609.03;5006042;28;20042;-46
2023/05/19 10:55:03;;;;;;;7.80;2.67;;;;;;;21.55;84.00;102598.06;4980108;28;20125;-47
2023/05/19 10:57:31;;;;;;;6.57;2.38;;;;;;;21.50;96.23;102626.94;4999565;28;20084;-47
2023/05/19 10:59:59;;;;;;;11.27;3.28;;;;;;;22.16;90.96;102617.25;4992880;28;20133;-45
2023/05/19 11:02:41;;;;;;;5.50;3.38;;;;;;;22.57;93.02;102623.09;4991758;28;20088;-47
2023/05/19 11:05:15;;;;;;;11.60;3.20;;;;;;;23.81;92.44;102608.78;4992592;28;20038;-45
2023/05/19 11:07:53;;;;;;;7.65;2.83;;;;;;;24.14;78.85;102541.31;4989898;28;20113;-45
2023/05/19 11:10:23;;;;;;;18.52;3.50;;;;;;;25.50;87.62;102607.88;4992662;28;20113;-49
2023/05/19 11:12:48;;;;;;;14.45;4.47;;;;;;;26.16;79.30;102618.59;4992459;28;20515;-51
2023/05/19 11:15:14;;;;;;;8.27;3.13;;;;;;;26.08;65.55;102611.97;4992492;28;20042;-44
2023/05/19 11:17:41;;;;;;;8.23;2.92;;;;;;;24.95;71.61;102594.47;4978477;28;20053;-46